Terminal Aerodrome Forecast
Issued by NWS Denver/Boulder, CO

Home | Current Version | Previous Version | Text Only | Print | Product List | Glossary On
Versions: 1 2 3 4 5 6 7 8 9 10 11 12 13 14 15 16 17 18 19 20 21 22 23 24 25 26 27 28 29 30 31 32 33 34 35 36 37 38 39 40 41 42 43 44 45 46 47 48 49 50
000
FTUS45 KBOU 112338
TAFDEN
TAF
KDEN 112338Z 1200/1306 30012KT P6SM VCTS SCT070CB BKN120
      TEMPO 1200/1202 VRB25G35KT 4SM TSRA BKN050CB
     FM120200 02009KT P6SM VCSH SCT080 BKN140
     FM120800 32009KT P6SM VCFG FEW020 SCT070 BKN100
     FM121500 04010KT P6SM BKN070 BKN140
      TEMPO 1221/1301 VRB15G30KT 5SM TSRA BKN060CB
     FM130100 07008KT P6SM VCTS SCT060CB BKN120=

USA.gov is the U.S. government's official web portal to all federal, state and local government web resources and services.